Montgomery Regional (Dannelly Field) Airport Montgomery US
ICAO: KMGM
IATA: MGM
Category: Large
Scheduled Services: Yes

Elevation: 221 ft
TransAlt. 18000 ft.

Airport Communications:
APP/DEP:118.85
ATIS:120.675
CLNC DEL:118.3
CTAF:119.7
GND:121.7
ARNG OPS:38.2
ANG OPS:27.68
ANNISTON RDO:122.2
SFA:122.85
TWR:119.7
UNICOM:122.95

KMGM Zoom In..

Runways:

(A) RW 03 length 4011 ft width 150 ft
---- / hdg 34

(B) RW 10 length 9020 ft width 150 ft
ILS 109.90 / hdg 97

(C) RW 21 length 4011 ft width 150 ft
---- / hdg 214

(D) RW 28 length 9020 ft width 150 ft
ILS 108.50 / hdg 277

Location; KMGM
Day. 26 / Time. 04.07 Zulu
* Altimeter: 29.96
* Temperature: 22° c. 71.6°f.
* Wind from: 000° Speed 00 kn.
Dewpoint: 22° c.
Visibility: 4 Statute Miles.
Clouds: Broken 200 ft.
Conditions: Mist.

KMGM 260407Z AUTO 00000KT 4SM BR BKN002 22/22 A2996 RMK AO2 T02220217


Wind - Calm.

 
 
jpsmedia.com for Web Design SOUNDCLOUD worldairports.se 2018   terms of use